Time,TemperatureF,DewpointF,PressureIn,WindDirection,WindDirectionDegrees,WindSpeedMPH,WindSpeedGustMPH,Humidity,HourlyPrecipIn,Conditions,Clouds,dailyrainin,SoftwareType,DateUTC
2013-02-21 00:02:00,44.8,39.4,30.07,SSW,204,0.0,0.0,81,0.00,,,0.00,meteohub,2013-02-21 08:02:00,
2013-02-21 00:07:00,44.6,39.2,30.07,SSW,204,0.0,0.0,81,0.00,,,0.00,meteohub,2013-02-21 08:07:00,
2013-02-21 00:12:00,44.4,39.0,30.07,SSW,204,0.0,0.0,81,0.00,,,0.00,meteohub,2013-02-21 08:12:00,
2013-02-21 00:17:00,44.2,38.8,30.07,SSW,204,0.0,0.0,81,0.00,,,0.00,meteohub,2013-02-21 08:17:00,
2013-02-21 00:22:00,44.2,39.0,30.07,SSW,204,0.0,0.0,82,0.00,,,0.00,meteohub,2013-02-21 08:22:00,
2013-02-21 00:27:00,44.1,38.8,30.07,SSW,204,0.0,0.0,82,0.00,,,0.00,meteohub,2013-02-21 08:27:00,
2013-02-21 00:32:00,43.9,38.7,30.08,SSW,204,0.0,0.0,82,0.00,,,0.00,meteohub,2013-02-21 08:32:00,
2013-02-21 00:37:00,43.9,39.0,30.07,SSW,204,0.0,0.0,83,0.00,,,0.00,meteohub,2013-02-21 08:37:00,
2013-02-21 00:42:00,43.9,39.0,30.07,SSW,204,0.0,0.0,83,0.00,,,0.00,meteohub,2013-02-21 08:42:00,
2013-02-21 00:47:00,43.9,39.0,30.07,SSW,204,0.0,0.0,83,0.00,,,0.00,meteohub,2013-02-21 08:47:00,
2013-02-21 00:52:00,43.9,39.0,30.08,SSW,204,0.0,0.0,83,0.00,,,0.00,meteohub,2013-02-21 08:52:00,
2013-02-21 00:57:00,43.9,39.0,30.08,SSW,204,0.0,0.0,83,0.00,,,0.00,meteohub,2013-02-21 08:57:00,
2013-02-21 01:02:00,43.7,38.8,30.08,SSW,204,0.0,0.0,83,0.00,,,0.00,meteohub,2013-02-21 09:02:00,
2013-02-21 01:07:00,43.7,39.2,30.08,SSW,204,0.0,0.0,84,0.00,,,0.00,meteohub,2013-02-21 09:07:00,
2013-02-21 01:12:00,43.7,39.2,30.08,SSW,204,0.0,0.0,84,0.00,,,0.00,meteohub,2013-02-21 09:12:00,
2013-02-21 01:17:00,43.5,39.0,30.08,SSW,204,0.0,0.0,84,0.00,,,0.00,meteohub,2013-02-21 09:17:00,
2013-02-21 01:22:00,43.5,39.0,30.08,SSW,204,0.0,1.0,84,0.00,,,0.00,meteohub,2013-02-21 09:22:00,
2013-02-21 01:27:00,43.5,39.0,30.09,SSW,204,0.0,1.0,84,0.00,,,0.00,meteohub,2013-02-21 09:27:00,
2013-02-21 01:32:00,43.5,39.0,30.09,SSW,204,0.0,1.0,84,0.00,,,0.00,meteohub,2013-02-21 09:32:00,
2013-02-21 01:37:00,43.5,39.0,30.09,SSW,204,0.0,0.0,84,0.00,,,0.00,meteohub,2013-02-21 09:37:00,
2013-02-21 01:42:00,43.5,39.0,30.08,SSW,204,0.0,0.0,84,0.00,,,0.00,meteohub,2013-02-21 09:42:00,
2013-02-21 01:47:00,43.5,39.0,30.08,SSW,204,0.0,0.0,84,0.00,,,0.00,meteohub,2013-02-21 09:47:00,
2013-02-21 01:52:00,43.5,39.0,30.08,SSW,204,0.0,0.0,84,0.00,,,0.00,meteohub,2013-02-21 09:52:00,
2013-02-21 01:57:00,43.3,38.8,30.08,SSW,204,0.0,0.0,84,0.00,,,0.00,meteohub,2013-02-21 09:57:00,
2013-02-21 02:02:00,43.3,38.8,30.08,SSW,204,0.0,0.0,84,0.00,,,0.00,meteohub,2013-02-21 10:02:00,
2013-02-21 02:07:00,43.3,38.8,30.08,SSW,204,0.0,0.0,84,0.00,,,0.00,meteohub,2013-02-21 10:07:00,
2013-02-21 02:12:00,43.3,38.8,30.08,SSW,204,0.0,0.0,84,0.00,,,0.00,meteohub,2013-02-21 10:12:00,
2013-02-21 02:17:00,43.3,38.8,30.07,SSW,204,0.0,0.0,84,0.00,,,0.00,meteohub,2013-02-21 10:17:00,
2013-02-21 02:22:00,43.3,38.8,30.08,SSW,204,0.0,0.0,84,0.00,,,0.00,meteohub,2013-02-21 10:22:00,
2013-02-21 02:27:00,43.2,38.7,30.07,SSW,204,0.0,0.0,84,0.00,,,0.00,meteohub,2013-02-21 10:27:00,
2013-02-21 02:32:00,43.2,39.0,30.07,SSW,204,0.0,0.0,85,0.00,,,0.00,meteohub,2013-02-21 10:32:00,
2013-02-21 02:37:00,43.2,39.0,30.07,SSW,204,0.0,0.0,85,0.00,,,0.00,meteohub,2013-02-21 10:37:00,
2013-02-21 02:42:00,43.3,39.2,30.06,SSW,204,0.0,0.0,85,0.00,,,0.00,meteohub,2013-02-21 10:42:00,
2013-02-21 02:47:00,43.3,39.2,30.06,SSW,204,0.0,0.0,85,0.00,,,0.00,meteohub,2013-02-21 10:47:00,
2013-02-21 02:52:00,43.3,39.2,30.06,SSW,204,0.0,0.0,85,0.00,,,0.00,meteohub,2013-02-21 10:52:00,
2013-02-21 02:57:00,43.3,39.2,30.06,SSW,204,0.0,0.0,85,0.00,,,0.00,meteohub,2013-02-21 10:57:00,
2013-02-21 03:02:00,43.3,39.2,30.06,SSW,204,0.0,0.0,85,0.00,,,0.00,meteohub,2013-02-21 11:02:00,
2013-02-21 03:07:00,43.3,39.2,30.06,SSW,204,0.0,0.0,85,0.00,,,0.00,meteohub,2013-02-21 11:07:00,
2013-02-21 03:12:00,43.3,39.2,30.06,SSW,204,0.0,0.0,85,0.00,,,0.00,meteohub,2013-02-21 11:12:00,
2013-02-21 03:17:00,43.3,39.2,30.06,SSW,204,0.0,0.0,85,0.00,,,0.00,meteohub,2013-02-21 11:17:00,
2013-02-21 03:22:00,43.3,39.2,30.06,SSW,204,0.0,0.0,85,0.00,,,0.00,meteohub,2013-02-21 11:22:00,
2013-02-21 03:27:00,43.3,39.2,30.07,SSW,204,0.0,0.0,85,0.00,,,0.00,meteohub,2013-02-21 11:27:00,
2013-02-21 03:32:00,43.5,39.6,30.07,SSW,204,0.0,0.0,86,0.00,,,0.00,meteohub,2013-02-21 11:32:00,
2013-02-21 03:37:00,43.5,39.6,30.06,SSW,204,0.0,0.0,86,0.00,,,0.00,meteohub,2013-02-21 11:37:00,
2013-02-21 03:42:00,43.7,39.7,30.06,SSW,204,0.0,0.0,86,0.00,,,0.00,meteohub,2013-02-21 11:42:00,
2013-02-21 03:47:00,43.9,39.7,30.06,SSW,204,0.0,0.0,85,0.00,,,0.00,meteohub,2013-02-21 11:47:00,
2013-02-21 03:52:00,43.9,39.7,30.06,SSW,204,0.0,0.0,85,0.00,,,0.00,meteohub,2013-02-21 11:52:00,
2013-02-21 03:57:00,43.9,39.7,30.06,SSW,204,0.0,0.0,85,0.00,,,0.00,meteohub,2013-02-21 11:57:00,
2013-02-21 04:02:00,43.9,39.7,30.06,SSW,204,0.0,0.0,85,0.00,,,0.00,meteohub,2013-02-21 12:02:00,
2013-02-21 04:07:00,43.9,39.7,30.06,SSW,204,0.0,0.0,85,0.00,,,0.00,meteohub,2013-02-21 12:07:00,
2013-02-21 04:12:00,44.1,39.9,30.07,SSW,204,0.0,0.0,85,0.00,,,0.00,meteohub,2013-02-21 12:12:00,
2013-02-21 04:17:00,44.1,39.9,30.07,SSW,204,0.0,0.0,85,0.00,,,0.00,meteohub,2013-02-21 12:17:00,
2013-02-21 04:22:00,44.1,39.6,30.07,SSW,204,0.0,0.0,84,0.00,,,0.00,meteohub,2013-02-21 12:22:00,
2013-02-21 04:27:00,44.2,39.7,30.07,SSW,204,0.0,0.0,84,0.00,,,0.00,meteohub,2013-02-21 12:27:00,
2013-02-21 04:32:00,44.2,39.7,30.08,SSW,204,0.0,0.0,84,0.00,,,0.00,meteohub,2013-02-21 12:32:00,
2013-02-21 04:37:00,44.2,39.7,30.08,SSW,204,0.0,0.0,84,0.00,,,0.00,meteohub,2013-02-21 12:37:00,
2013-02-21 04:42:00,44.2,39.7,30.08,SSW,204,0.0,0.0,84,0.00,,,0.00,meteohub,2013-02-21 12:42:00,
2013-02-21 04:47:00,44.2,39.7,30.08,SSW,204,0.0,0.0,84,0.00,,,0.00,meteohub,2013-02-21 12:47:00,
2013-02-21 04:52:00,44.4,39.9,30.08,SSW,204,0.0,0.0,84,0.00,,,0.00,meteohub,2013-02-21 12:52:00,
2013-02-21 04:57:00,44.4,39.9,30.08,SSW,204,0.0,0.0,84,0.00,,,0.00,meteohub,2013-02-21 12:57:00,
2013-02-21 05:02:00,44.4,39.9,30.08,SSW,204,0.0,0.0,84,0.00,,,0.00,meteohub,2013-02-21 13:02:00,
2013-02-21 05:07:00,44.4,39.9,30.08,SSW,204,0.0,0.0,84,0.00,,,0.00,meteohub,2013-02-21 13:07:00,
2013-02-21 05:12:00,44.4,39.9,30.07,SSW,204,0.0,0.0,84,0.00,,,0.00,meteohub,2013-02-21 13:12:00,
2013-02-21 05:17:00,44.4,39.9,30.07,SSW,204,0.0,0.0,84,0.00,,,0.00,meteohub,2013-02-21 13:17:00,
2013-02-21 05:22:00,44.4,39.9,30.08,SSW,204,0.0,0.0,84,0.00,,,0.00,meteohub,2013-02-21 13:22:00,
2013-02-21 05:27:00,44.4,39.9,30.08,SSW,204,0.0,0.0,84,0.00,,,0.00,meteohub,2013-02-21 13:27:00,
2013-02-21 05:32:00,44.2,39.7,30.07,SSW,204,0.0,0.0,84,0.00,,,0.00,meteohub,2013-02-21 13:32:00,
2013-02-21 05:37:00,44.2,39.7,30.07,SSW,204,0.0,0.0,84,0.00,,,0.00,meteohub,2013-02-21 13:37:00,
2013-02-21 05:42:00,44.1,39.6,30.07,SSW,204,0.0,0.0,84,0.00,,,0.00,meteohub,2013-02-21 13:42:00,
2013-02-21 05:47:00,44.1,39.6,30.08,SSW,204,0.0,0.0,84,0.00,,,0.00,meteohub,2013-02-21 13:47:00,
2013-02-21 05:52:00,44.1,39.6,30.08,SSW,204,0.0,0.0,84,0.00,,,0.00,meteohub,2013-02-21 13:52:00,
2013-02-21 05:57:00,43.9,39.7,30.08,SSW,204,0.0,0.0,85,0.00,,,0.00,meteohub,2013-02-21 13:57:00,
2013-02-21 06:02:00,43.9,39.7,30.08,SSW,204,0.0,0.0,85,0.00,,,0.00,meteohub,2013-02-21 14:02:00,
2013-02-21 06:07:00,43.9,39.7,30.08,SSW,204,0.0,0.0,85,0.00,,,0.00,meteohub,2013-02-21 14:07:00,
2013-02-21 06:12:00,43.9,39.7,30.08,SSW,204,0.0,0.0,85,0.00,,,0.00,meteohub,2013-02-21 14:12:00,
2013-02-21 06:17:00,43.9,39.7,30.09,SSW,204,0.0,0.0,85,0.00,,,0.00,meteohub,2013-02-21 14:17:00,
2013-02-21 06:22:00,43.7,39.6,30.09,SSW,204,0.0,0.0,85,0.00,,,0.00,meteohub,2013-02-21 14:22:00,
2013-02-21 06:27:00,43.5,39.4,30.09,SSW,204,0.0,0.0,85,0.00,,,0.00,meteohub,2013-02-21 14:27:00,
2013-02-21 06:32:00,43.5,39.6,30.09,SSW,204,0.0,0.0,86,0.00,,,0.00,meteohub,2013-02-21 14:32:00,
2013-02-21 06:37:00,43.7,39.7,30.09,SSW,204,0.0,0.0,86,0.00,,,0.00,meteohub,2013-02-21 14:37:00,
2013-02-21 06:42:00,43.9,39.9,30.08,SSW,204,0.0,0.0,86,0.00,,,0.00,meteohub,2013-02-21 14:42:00,
2013-02-21 06:47:00,43.9,39.7,30.09,SSW,204,0.0,0.0,85,0.00,,,0.00,meteohub,2013-02-21 14:47:00,
2013-02-21 06:52:00,44.1,39.9,30.09,SSW,204,0.0,0.0,85,0.00,,,0.00,meteohub,2013-02-21 14:52:00,
2013-02-21 06:57:00,44.1,39.9,30.09,SSW,204,0.0,0.0,85,0.00,,,0.00,meteohub,2013-02-21 14:57:00,
2013-02-21 07:02:00,44.1,39.9,30.09,SSW,204,0.0,0.0,85,0.00,,,0.00,meteohub,2013-02-21 15:02:00,
2013-02-21 07:07:00,44.1,39.9,30.09,SSW,204,0.0,0.0,85,0.00,,,0.00,meteohub,2013-02-21 15:07:00,
2013-02-21 07:12:00,44.1,39.9,30.09,SSW,204,0.0,0.0,85,0.00,,,0.00,meteohub,2013-02-21 15:12:00,
2013-02-21 07:17:00,44.1,40.1,30.09,SSW,204,0.0,0.0,86,0.00,,,0.00,meteohub,2013-02-21 15:17:00,
2013-02-21 07:22:00,44.2,40.3,30.09,SSW,204,0.0,0.0,86,0.00,,,0.00,meteohub,2013-02-21 15:22:00,
2013-02-21 07:27:00,44.2,40.1,30.09,SSW,204,0.0,0.0,85,0.00,,,0.00,meteohub,2013-02-21 15:27:00,
2013-02-21 07:32:00,44.4,40.5,30.09,SSW,204,0.0,0.0,86,0.00,,,0.00,meteohub,2013-02-21 15:32:00,
2013-02-21 07:37:00,44.6,40.6,30.10,SSW,204,0.0,0.0,86,0.00,,,0.00,meteohub,2013-02-21 15:37:00,
2013-02-21 07:42:00,44.8,40.8,30.09,SSW,204,0.0,0.0,86,0.00,,,0.00,meteohub,2013-02-21 15:42:00,
2013-02-21 07:47:00,45.0,41.0,30.10,SSW,204,0.0,0.0,86,0.00,,,0.00,meteohub,2013-02-21 15:47:00,
2013-02-21 07:52:00,45.1,41.2,30.10,SSW,204,0.0,0.0,86,0.00,,,0.00,meteohub,2013-02-21 15:52:00,
2013-02-21 07:57:00,45.5,41.5,30.10,SSW,204,0.0,0.0,86,0.00,,,0.00,meteohub,2013-02-21 15:57:00,
2013-02-21 08:02:00,45.7,41.4,30.10,SSW,204,0.0,0.0,85,0.00,,,0.00,meteohub,2013-02-21 16:02:00,
2013-02-21 08:07:00,45.9,41.4,30.10,SSW,204,0.0,0.0,84,0.00,,,0.00,meteohub,2013-02-21 16:07:00,
2013-02-21 08:12:00,46.0,41.2,30.10,SSW,204,0.0,0.0,83,0.00,,,0.00,meteohub,2013-02-21 16:12:00,
2013-02-21 08:17:00,46.2,41.7,30.10,SSW,204,0.0,0.0,84,0.00,,,0.00,meteohub,2013-02-21 16:17:00,
2013-02-21 08:22:00,46.6,42.1,30.11,SSW,204,0.0,1.0,84,0.00,,,0.00,meteohub,2013-02-21 16:22:00,
2013-02-21 08:27:00,46.9,42.1,30.11,SSW,204,0.0,1.0,83,0.00,,,0.00,meteohub,2013-02-21 16:27:00,
2013-02-21 08:32:00,47.7,42.4,30.10,SSW,204,0.0,1.0,82,0.00,,,0.00,meteohub,2013-02-21 16:32:00,
2013-02-21 08:37:00,48.2,43.0,30.10,SSW,204,0.0,1.0,82,0.00,,,0.00,meteohub,2013-02-21 16:37:00,
2013-02-21 08:42:00,48.9,43.3,30.11,South,187,0.0,1.0,81,0.00,,,0.00,meteohub,2013-02-21 16:42:00,
2013-02-21 08:47:00,49.6,43.3,30.11,NE,53,0.0,3.0,79,0.00,,,0.00,meteohub,2013-02-21 16:47:00,
2013-02-21 08:52:00,50.2,43.5,30.11,South,184,0.0,6.0,78,0.00,,,0.00,meteohub,2013-02-21 16:52:00,
2013-02-21 08:57:00,50.5,43.5,30.10,ESE,111,0.0,6.0,77,0.00,,,0.00,meteohub,2013-02-21 16:57:00,
2013-02-21 09:02:00,51.1,44.1,30.10,SW,216,0.0,2.0,77,0.00,,,0.00,meteohub,2013-02-21 17:02:00,
2013-02-21 09:07:00,51.6,44.2,30.10,SW,214,1.0,2.0,76,0.00,,,0.00,meteohub,2013-02-21 17:07:00,
2013-02-21 09:12:00,52.2,44.4,30.09,South,182,1.0,5.0,75,0.00,,,0.00,meteohub,2013-02-21 17:12:00,
2013-02-21 09:17:00,52.5,44.8,30.10,WSW,237,0.0,5.0,75,0.00,,,0.00,meteohub,2013-02-21 17:17:00,
2013-02-21 09:22:00,53.1,44.6,30.09,SSE,151,2.0,5.0,73,0.00,,,0.00,meteohub,2013-02-21 17:22:00,
2013-02-21 09:27:00,53.2,44.4,30.10,WSW,251,0.0,4.0,72,0.00,,,0.00,meteohub,2013-02-21 17:27:00,
2013-02-21 09:32:00,53.6,45.1,30.10,SSW,208,0.0,5.0,73,0.00,,,0.00,meteohub,2013-02-21 17:32:00,
2013-02-21 09:37:00,54.0,45.1,30.10,SSW,209,0.0,5.0,72,0.00,,,0.00,meteohub,2013-02-21 17:37:00,
2013-02-21 09:42:00,54.0,44.8,30.10,South,177,1.0,5.0,71,0.00,,,0.00,meteohub,2013-02-21 17:42:00,
2013-02-21 09:47:00,54.1,45.0,30.10,SSW,211,0.0,4.0,71,0.00,,,0.00,meteohub,2013-02-21 17:47:00,
2013-02-21 09:52:00,54.1,45.0,30.10,SSE,166,0.0,4.0,71,0.00,,,0.00,meteohub,2013-02-21 17:52:00,
2013-02-21 09:57:00,54.3,44.8,30.11,SW,216,1.0,4.0,70,0.00,,,0.00,meteohub,2013-02-21 17:57:00,
2013-02-21 10:02:00,54.3,44.8,30.11,SSW,208,0.0,4.0,70,0.00,,,0.00,meteohub,2013-02-21 18:02:00,
2013-02-21 10:07:00,54.3,44.8,30.11,SSW,207,1.0,4.0,70,0.00,,,0.00,meteohub,2013-02-21 18:07:00,
2013-02-21 10:12:00,54.5,44.6,30.12,SSW,196,2.0,3.0,69,0.00,,,0.00,meteohub,2013-02-21 18:12:00,
2013-02-21 10:17:00,54.5,45.0,30.12,SSW,196,0.0,4.0,70,0.00,,,0.00,meteohub,2013-02-21 18:17:00,
2013-02-21 10:22:00,54.7,44.8,30.11,SW,223,0.0,4.0,69,0.00,,,0.00,meteohub,2013-02-21 18:22:00,
2013-02-21 10:27:00,54.7,44.8,30.11,SW,215,0.0,4.0,69,0.00,,,0.00,meteohub,2013-02-21 18:27:00,
2013-02-21 10:32:00,54.7,44.8,30.11,SW,226,3.0,4.0,69,0.00,,,0.00,meteohub,2013-02-21 18:32:00,
2013-02-21 10:37:00,54.7,44.8,30.11,SSW,207,1.0,4.0,69,0.00,,,0.00,meteohub,2013-02-21 18:37:00,
2013-02-21 10:42:00,55.0,45.9,30.11,WSW,242,0.0,3.0,71,0.00,,,0.00,meteohub,2013-02-21 18:42:00,
2013-02-21 10:47:00,55.4,44.6,30.11,SSW,201,1.0,6.0,67,0.00,,,0.00,meteohub,2013-02-21 18:47:00,
2013-02-21 10:52:00,55.2,44.8,30.11,SW,219,0.0,6.0,68,0.00,,,0.00,meteohub,2013-02-21 18:52:00,
2013-02-21 10:57:00,55.2,45.1,30.10,ESE,105,0.0,6.0,69,0.00,,,0.00,meteohub,2013-02-21 18:57:00,
2013-02-21 11:02:00,55.9,44.8,30.09,East,83,0.0,5.0,66,0.00,,,0.00,meteohub,2013-02-21 19:02:00,
2013-02-21 11:07:00,56.8,44.4,30.09,SW,221,2.0,5.0,63,0.00,,,0.00,meteohub,2013-02-21 19:07:00,
2013-02-21 11:12:00,57.2,44.8,30.09,South,188,0.0,5.0,63,0.00,,,0.00,meteohub,2013-02-21 19:12:00,
2013-02-21 11:17:00,57.6,44.2,30.09,SW,225,3.0,5.0,61,0.00,,,0.00,meteohub,2013-02-21 19:17:00,
2013-02-21 11:22:00,57.7,43.5,30.09,WSW,241,0.0,5.0,59,0.00,,,0.00,meteohub,2013-02-21 19:22:00,
2013-02-21 11:27:00,58.5,44.2,30.08,North,349,0.0,7.0,59,0.00,,,0.00,meteohub,2013-02-21 19:27:00,
2013-02-21 11:32:00,59.0,44.2,30.08,South,182,1.0,7.0,58,0.00,,,0.00,meteohub,2013-02-21 19:32:00,
2013-02-21 11:37:00,59.2,44.4,30.07,SE,146,1.0,5.0,58,0.00,,,0.00,meteohub,2013-02-21 19:37:00,
2013-02-21 11:42:00,58.8,44.6,30.07,SW,233,3.0,5.0,59,0.00,,,0.00,meteohub,2013-02-21 19:42:00,
2013-02-21 11:47:00,58.6,43.5,30.06,SW,235,0.0,6.0,57,0.00,,,0.00,meteohub,2013-02-21 19:47:00,
2013-02-21 11:52:00,58.5,43.3,30.06,SSW,207,1.0,6.0,57,0.00,,,0.00,meteohub,2013-02-21 19:52:00,
2013-02-21 11:57:00,58.6,44.4,30.06,West,269,1.0,6.0,59,0.00,,,0.00,meteohub,2013-02-21 19:57:00,
2013-02-21 12:02:00,59.4,43.7,30.06,SW,234,0.0,5.0,56,0.00,,,0.00,meteohub,2013-02-21 20:02:00,
2013-02-21 12:07:00,59.7,43.5,30.05,South,180,2.0,4.0,55,0.00,,,0.00,meteohub,2013-02-21 20:07:00,
2013-02-21 12:12:00,59.5,44.2,30.05,SSE,167,1.0,4.0,57,0.00,,,0.00,meteohub,2013-02-21 20:12:00,
2013-02-21 12:17:00,59.4,45.5,30.05,SSW,205,0.0,5.0,60,0.00,,,0.00,meteohub,2013-02-21 20:17:00,
2013-02-21 12:22:00,59.0,45.5,30.05,West,281,0.0,5.0,61,0.00,,,0.00,meteohub,2013-02-21 20:22:00,
2013-02-21 12:27:00,58.6,46.0,30.05,SW,224,3.0,5.0,63,0.00,,,0.00,meteohub,2013-02-21 20:27:00,
2013-02-21 12:32:00,57.9,45.3,30.05,NNW,330,0.0,4.0,63,0.00,,,0.00,meteohub,2013-02-21 20:32:00,
2013-02-21 12:37:00,57.4,45.3,30.05,SSW,208,0.0,4.0,64,0.00,,,0.00,meteohub,2013-02-21 20:37:00,
2013-02-21 12:42:00,56.8,44.8,30.05,SW,229,0.0,4.0,64,0.00,,,0.00,meteohub,2013-02-21 20:42:00,
2013-02-21 12:47:00,56.5,45.7,30.05,West,275,0.0,4.0,67,0.00,,,0.00,meteohub,2013-02-21 20:47:00,
2013-02-21 12:52:00,56.1,45.3,30.05,NW,308,0.0,4.0,67,0.00,,,0.00,meteohub,2013-02-21 20:52:00,
2013-02-21 12:57:00,55.9,44.4,30.05,WSW,238,0.0,4.0,65,0.00,,,0.00,meteohub,2013-02-21 20:57:00,
2013-02-21 13:02:00,55.8,44.6,30.05,WSW,238,0.0,4.0,66,0.00,,,0.00,meteohub,2013-02-21 21:02:00,
2013-02-21 13:07:00,55.8,44.6,30.05,SW,221,0.0,4.0,66,0.00,,,0.00,meteohub,2013-02-21 21:07:00,
2013-02-21 13:12:00,55.8,44.6,30.04,SSW,205,0.0,3.0,66,0.00,,,0.00,meteohub,2013-02-21 21:12:00,
2013-02-21 13:17:00,55.9,44.8,30.05,SSW,201,0.0,2.0,66,0.00,,,0.00,meteohub,2013-02-21 21:17:00,
2013-02-21 13:22:00,56.1,44.1,30.04,SSE,168,2.0,2.0,64,0.00,,,0.00,meteohub,2013-02-21 21:22:00,
2013-02-21 13:27:00,56.5,43.7,30.04,SSW,211,1.0,6.0,62,0.00,,,0.00,meteohub,2013-02-21 21:27:00,
2013-02-21 13:32:00,57.0,44.1,30.04,SSW,193,2.0,6.0,62,0.00,,,0.00,meteohub,2013-02-21 21:32:00,
2013-02-21 13:37:00,57.2,43.9,30.04,SSW,211,0.0,7.0,61,0.00,,,0.00,meteohub,2013-02-21 21:37:00,
2013-02-21 13:42:00,57.0,43.7,30.04,SW,228,0.0,7.0,61,0.00,,,0.00,meteohub,2013-02-21 21:42:00,
2013-02-21 13:47:00,56.8,43.2,30.04,SSE,157,0.0,7.0,60,0.00,,,0.00,meteohub,2013-02-21 21:47:00,
2013-02-21 13:52:00,56.7,43.3,30.04,SW,229,0.0,4.0,61,0.00,,,0.00,meteohub,2013-02-21 21:52:00,
2013-02-21 13:57:00,56.5,43.7,30.04,SW,219,0.0,4.0,62,0.00,,,0.00,meteohub,2013-02-21 21:57:00,
2013-02-21 14:02:00,56.1,43.7,30.04,SSW,199,0.0,3.0,63,0.00,,,0.00,meteohub,2013-02-21 22:02:00,
2013-02-21 14:07:00,56.1,44.1,30.04,SW,219,1.0,4.0,64,0.00,,,0.00,meteohub,2013-02-21 22:07:00,
2013-02-21 14:12:00,56.1,44.1,30.04,SSW,201,0.0,4.0,64,0.00,,,0.00,meteohub,2013-02-21 22:12:00,
2013-02-21 14:17:00,56.1,44.6,30.04,WSW,246,4.0,4.0,65,0.00,,,0.00,meteohub,2013-02-21 22:17:00,
2013-02-21 14:22:00,55.9,44.8,30.04,SSW,207,0.0,9.0,66,0.00,,,0.00,meteohub,2013-02-21 22:22:00,
2013-02-21 14:27:00,55.9,45.1,30.05,South,186,0.0,9.0,67,0.00,,,0.00,meteohub,2013-02-21 22:27:00,
2013-02-21 14:32:00,55.8,44.6,30.05,South,191,2.0,9.0,66,0.00,,,0.00,meteohub,2013-02-21 22:32:00,
2013-02-21 14:37:00,55.6,44.4,30.04,SSE,160,0.0,6.0,66,0.00,,,0.00,meteohub,2013-02-21 22:37:00,
2013-02-21 14:42:00,55.4,45.0,30.05,SSW,205,0.0,7.0,68,0.00,,,0.00,meteohub,2013-02-21 22:42:00,
2013-02-21 14:47:00,55.6,44.4,30.05,SW,218,0.0,7.0,66,0.00,,,0.00,meteohub,2013-02-21 22:47:00,
2013-02-21 14:52:00,56.3,44.2,30.05,SSW,192,0.0,7.0,64,0.00,,,0.00,meteohub,2013-02-21 22:52:00,
2013-02-21 14:57:00,57.0,45.0,30.05,SW,223,2.0,5.0,64,0.00,,,0.00,meteohub,2013-02-21 22:57:00,
2013-02-21 15:02:00,57.7,46.0,30.05,ESE,120,2.0,5.0,65,0.00,,,0.00,meteohub,2013-02-21 23:02:00,
2013-02-21 15:07:00,58.3,45.7,30.05,SSE,158,0.0,5.0,63,0.00,,,0.00,meteohub,2013-02-21 23:07:00,
2013-02-21 15:12:00,58.8,45.9,30.05,NNE,31,1.0,5.0,62,0.00,,,0.00,meteohub,2013-02-21 23:12:00,
2013-02-21 15:17:00,58.8,46.6,30.04,WSW,239,0.0,4.0,64,0.00,,,0.00,meteohub,2013-02-21 23:17:00,
2013-02-21 15:22:00,58.8,45.9,30.04,ESE,103,0.0,4.0,62,0.00,,,0.00,meteohub,2013-02-21 23:22:00,
2013-02-21 15:27:00,58.5,45.5,30.04,SW,226,0.0,4.0,62,0.00,,,0.00,meteohub,2013-02-21 23:27:00,
2013-02-21 15:32:00,57.7,45.7,30.04,SW,218,0.0,4.0,64,0.00,,,0.00,meteohub,2013-02-21 23:32:00,
2013-02-21 15:37:00,57.0,45.3,30.04,SW,225,0.0,4.0,65,0.00,,,0.00,meteohub,2013-02-21 23:37:00,
2013-02-21 15:42:00,56.3,45.1,30.05,South,175,0.0,4.0,66,0.00,,,0.00,meteohub,2013-02-21 23:42:00,
2013-02-21 15:47:00,56.1,45.3,30.04,South,184,2.0,4.0,67,0.00,,,0.00,meteohub,2013-02-21 23:47:00,
2013-02-21 15:52:00,56.5,45.7,30.04,South,180,0.0,4.0,67,0.00,,,0.00,meteohub,2013-02-21 23:52:00,
2013-02-21 15:57:00,56.7,45.5,30.04,SSW,194,0.0,4.0,66,0.00,,,0.00,meteohub,2013-02-21 23:57:00,
2013-02-21 16:02:00,56.8,45.7,30.05,South,184,1.0,4.0,66,0.00,,,0.00,meteohub,2013-02-22 00:02:00,
2013-02-21 16:07:00,57.0,45.3,30.05,SW,232,0.0,4.0,65,0.00,,,0.00,meteohub,2013-02-22 00:07:00,
2013-02-21 16:12:00,56.8,44.8,30.05,SSW,211,1.0,6.0,64,0.00,,,0.00,meteohub,2013-02-22 00:12:00,
2013-02-21 16:17:00,56.7,44.6,30.05,SSW,202,1.0,6.0,64,0.00,,,0.00,meteohub,2013-02-22 00:17:00,
2013-02-21 16:22:00,56.5,44.1,30.05,WSW,240,0.0,6.0,63,0.00,,,0.00,meteohub,2013-02-22 00:22:00,
2013-02-21 16:27:00,56.1,43.3,30.05,South,178,0.0,6.0,62,0.00,,,0.00,meteohub,2013-02-22 00:27:00,
2013-02-21 16:32:00,55.9,42.6,30.05,SW,234,0.0,5.0,61,0.00,,,0.00,meteohub,2013-02-22 00:32:00,
2013-02-21 16:37:00,55.9,43.2,30.05,SSW,196,0.0,4.0,62,0.00,,,0.00,meteohub,2013-02-22 00:37:00,
2013-02-21 16:42:00,55.9,43.5,30.04,SW,232,0.0,4.0,63,0.00,,,0.00,meteohub,2013-02-22 00:42:00,
2013-02-21 16:47:00,55.9,43.5,30.04,SW,227,0.0,4.0,63,0.00,,,0.00,meteohub,2013-02-22 00:47:00,
2013-02-21 16:52:00,56.1,44.1,30.05,South,182,0.0,6.0,64,0.00,,,0.00,meteohub,2013-02-22 00:52:00,
2013-02-21 16:57:00,56.5,44.4,30.05,SSW,213,0.0,6.0,64,0.00,,,0.00,meteohub,2013-02-22 00:57:00,
2013-02-21 17:02:00,56.5,44.4,30.05,SSW,194,0.0,4.0,64,0.00,,,0.00,meteohub,2013-02-22 01:02:00,
2013-02-21 17:07:00,56.5,44.4,30.05,South,184,0.0,4.0,64,0.00,,,0.00,meteohub,2013-02-22 01:07:00,
2013-02-21 17:12:00,56.5,44.4,30.05,SSW,200,0.0,4.0,64,0.00,,,0.00,meteohub,2013-02-22 01:12:00,
2013-02-21 17:17:00,56.5,44.8,30.06,SSW,200,0.0,2.0,65,0.00,,,0.00,meteohub,2013-02-22 01:17:00,
2013-02-21 17:22:00,56.3,44.6,30.06,SSW,200,0.0,2.0,65,0.00,,,0.00,meteohub,2013-02-22 01:22:00,
2013-02-21 17:27:00,55.9,43.9,30.06,SSW,200,0.0,1.0,64,0.00,,,0.00,meteohub,2013-02-22 01:27:00,
2013-02-21 17:32:00,55.6,44.1,30.06,SSW,200,0.0,0.0,65,0.00,,,0.00,meteohub,2013-02-22 01:32:00,
2013-02-21 17:37:00,55.2,44.1,30.07,SSW,200,0.0,0.0,66,0.00,,,0.00,meteohub,2013-02-22 01:37:00,
2013-02-21 17:42:00,54.9,44.1,30.07,SSW,200,0.0,0.0,67,0.00,,,0.00,meteohub,2013-02-22 01:42:00,
2013-02-21 17:47:00,54.5,43.7,30.08,SSW,200,0.0,0.0,67,0.00,,,0.00,meteohub,2013-02-22 01:47:00,
2013-02-21 17:52:00,54.1,43.9,30.08,SSW,200,0.0,0.0,68,0.00,,,0.00,meteohub,2013-02-22 01:52:00,
2013-02-21 17:57:00,53.8,43.9,30.08,SSW,200,0.0,0.0,69,0.00,,,0.00,meteohub,2013-02-22 01:57:00,
2013-02-21 18:02:00,53.4,44.2,30.09,SSW,200,0.0,0.0,71,0.00,,,0.00,meteohub,2013-02-22 02:02:00,
2013-02-21 18:07:00,53.1,44.2,30.09,SSW,200,0.0,0.0,72,0.00,,,0.00,meteohub,2013-02-22 02:07:00,
2013-02-21 18:12:00,52.7,44.2,30.09,SSW,200,0.0,0.0,73,0.00,,,0.00,meteohub,2013-02-22 02:12:00,
2013-02-21 18:17:00,52.5,44.4,30.09,SSW,200,0.0,1.0,74,0.00,,,0.00,meteohub,2013-02-22 02:17:00,
2013-02-21 18:22:00,52.3,44.2,30.09,SSW,200,0.0,1.0,74,0.00,,,0.00,meteohub,2013-02-22 02:22:00,
2013-02-21 18:27:00,52.2,44.4,30.10,SSW,200,0.0,1.0,75,0.00,,,0.00,meteohub,2013-02-22 02:27:00,
2013-02-21 18:32:00,52.0,44.2,30.10,SSW,200,0.0,0.0,75,0.00,,,0.00,meteohub,2013-02-22 02:32:00,
2013-02-21 18:37:00,51.6,44.2,30.10,SSW,200,0.0,0.0,76,0.00,,,0.00,meteohub,2013-02-22 02:37:00,
2013-02-21 18:42:00,51.6,44.2,30.10,SSW,200,0.0,0.0,76,0.00,,,0.00,meteohub,2013-02-22 02:42:00,
2013-02-21 18:47:00,51.4,44.4,30.10,SSW,200,0.0,0.0,77,0.00,,,0.00,meteohub,2013-02-22 02:47:00,
2013-02-21 18:52:00,51.3,44.2,30.10,SSW,200,0.0,0.0,77,0.00,,,0.00,meteohub,2013-02-22 02:52:00,
2013-02-21 18:57:00,51.1,44.1,30.10,SSW,200,0.0,0.0,77,0.00,,,0.00,meteohub,2013-02-22 02:57:00,
2013-02-21 19:02:00,51.1,44.4,30.10,SSW,200,0.0,0.0,78,0.00,,,0.00,meteohub,2013-02-22 03:02:00,
2013-02-21 19:07:00,50.7,44.1,30.11,SSW,200,0.0,0.0,78,0.00,,,0.00,meteohub,2013-02-22 03:07:00,
2013-02-21 19:12:00,50.7,44.4,30.11,SSW,200,0.0,0.0,79,0.00,,,0.00,meteohub,2013-02-22 03:12:00,
2013-02-21 19:17:00,50.7,44.4,30.11,SSW,200,0.0,0.0,79,0.00,,,0.00,meteohub,2013-02-22 03:17:00,
2013-02-21 19:22:00,50.5,44.2,30.11,SSW,200,0.0,0.0,79,0.00,,,0.00,meteohub,2013-02-22 03:22:00,
2013-02-21 19:27:00,50.5,44.2,30.11,SSW,200,0.0,0.0,79,0.00,,,0.00,meteohub,2013-02-22 03:27:00,
2013-02-21 19:32:00,50.4,44.1,30.12,SSW,200,0.0,0.0,79,0.00,,,0.00,meteohub,2013-02-22 03:32:00,
2013-02-21 19:37:00,50.4,44.1,30.12,SSW,200,0.0,0.0,79,0.00,,,0.00,meteohub,2013-02-22 03:37:00,
2013-02-21 19:42:00,50.2,44.2,30.12,SSW,200,0.0,0.0,80,0.00,,,0.00,meteohub,2013-02-22 03:42:00,
2013-02-21 19:47:00,50.0,44.1,30.12,SSW,200,0.0,0.0,80,0.00,,,0.00,meteohub,2013-02-22 03:47:00,
2013-02-21 19:52:00,49.8,44.2,30.13,SSW,200,0.0,0.0,81,0.00,,,0.00,meteohub,2013-02-22 03:52:00,
2013-02-21 19:57:00,49.6,43.7,30.13,SSW,200,0.0,0.0,80,0.00,,,0.00,meteohub,2013-02-22 03:57:00,
2013-02-21 20:02:00,49.5,43.5,30.13,SSW,200,0.0,0.0,80,0.00,,,0.00,meteohub,2013-02-22 04:02:00,
2013-02-21 20:07:00,49.3,43.3,30.14,SSW,200,0.0,0.0,80,0.00,,,0.00,meteohub,2013-02-22 04:07:00,
2013-02-21 20:12:00,48.9,43.3,30.14,SSW,200,0.0,0.0,81,0.00,,,0.00,meteohub,2013-02-22 04:12:00,
2013-02-21 20:17:00,48.7,43.5,30.14,SSW,200,0.0,0.0,82,0.00,,,0.00,meteohub,2013-02-22 04:17:00,
2013-02-21 20:22:00,48.6,43.7,30.14,SSW,200,0.0,0.0,83,0.00,,,0.00,meteohub,2013-02-22 04:22:00,
2013-02-21 20:27:00,48.6,43.7,30.14,SSW,200,0.0,0.0,83,0.00,,,0.00,meteohub,2013-02-22 04:27:00,
2013-02-21 20:32:00,48.6,43.9,30.14,SSW,200,0.0,0.0,84,0.00,,,0.00,meteohub,2013-02-22 04:32:00,
2013-02-21 20:37:00,48.6,43.9,30.14,SSW,200,0.0,0.0,84,0.00,,,0.00,meteohub,2013-02-22 04:37:00,
2013-02-21 20:42:00,48.6,43.9,30.14,SSW,200,0.0,0.0,84,0.00,,,0.00,meteohub,2013-02-22 04:42:00,
2013-02-21 20:47:00,48.4,43.5,30.15,SSW,200,0.0,0.0,83,0.00,,,0.00,meteohub,2013-02-22 04:47:00,
2013-02-21 20:52:00,48.0,43.2,30.15,SSW,200,0.0,0.0,83,0.00,,,0.00,meteohub,2013-02-22 04:52:00,
2013-02-21 20:57:00,47.8,43.2,30.14,SSW,200,0.0,0.0,84,0.00,,,0.00,meteohub,2013-02-22 04:57:00,
2013-02-21 21:00:00,47.7,43.0,30.15,SSW,200,0.0,0.0,84,0.00,,,0.00,meteohub,2013-02-22 05:00:00,
2013-02-21 21:01:00,47.7,43.0,30.15,SSW,200,0.0,0.0,84,0.00,,,0.00,meteohub,2013-02-22 05:01:00,
2013-02-21 21:06:00,47.5,42.8,30.15,SSW,200,0.0,0.0,84,0.00,,,0.00,meteohub,2013-02-22 05:06:00,
2013-02-21 21:11:00,47.3,42.8,30.15,SSW,200,0.0,0.0,84,0.00,,,0.00,meteohub,2013-02-22 05:11:00,
2013-02-21 21:16:00,47.1,42.8,30.15,SSW,200,0.0,0.0,85,0.00,,,0.00,meteohub,2013-02-22 05:16:00,
2013-02-21 21:21:00,46.9,42.6,30.15,SSW,200,0.0,0.0,85,0.00,,,0.00,meteohub,2013-02-22 05:21:00,
2013-02-21 21:26:00,46.8,42.8,30.15,SSW,200,0.0,0.0,86,0.00,,,0.00,meteohub,2013-02-22 05:26:00,
2013-02-21 21:31:00,46.8,42.8,30.15,SSW,200,0.0,0.0,86,0.00,,,0.00,meteohub,2013-02-22 05:31:00,
2013-02-21 21:36:00,46.6,42.6,30.15,SSW,200,0.0,0.0,86,0.00,,,0.00,meteohub,2013-02-22 05:36:00,
2013-02-21 21:41:00,46.2,42.3,30.15,SSW,200,0.0,0.0,86,0.00,,,0.00,meteohub,2013-02-22 05:41:00,
2013-02-21 21:46:00,46.2,42.6,30.15,SSW,200,0.0,0.0,87,0.00,,,0.00,meteohub,2013-02-22 05:46:00,
2013-02-21 21:51:00,46.0,42.4,30.15,SSW,200,0.0,0.0,87,0.00,,,0.00,meteohub,2013-02-22 05:51:00,
2013-02-21 21:56:00,45.9,42.3,30.15,SSW,200,0.0,0.0,87,0.00,,,0.00,meteohub,2013-02-22 05:56:00,
2013-02-21 22:01:00,45.7,42.1,30.15,SSW,200,0.0,0.0,87,0.00,,,0.00,meteohub,2013-02-22 06:01:00,
2013-02-21 22:07:00,45.7,42.1,30.15,SSW,200,0.0,0.0,87,0.00,,,0.00,meteohub,2013-02-22 06:07:00,
2013-02-21 22:12:00,45.3,41.7,30.15,SSW,200,0.0,0.0,87,0.00,,,0.00,meteohub,2013-02-22 06:12:00,
2013-02-21 22:17:00,45.3,41.7,30.15,SSW,200,0.0,0.0,87,0.00,,,0.00,meteohub,2013-02-22 06:17:00,
2013-02-21 22:22:00,45.1,41.7,30.15,SSW,200,0.0,0.0,88,0.00,,,0.00,meteohub,2013-02-22 06:22:00,
2013-02-21 22:27:00,45.1,41.7,30.15,SSW,200,0.0,0.0,88,0.00,,,0.00,meteohub,2013-02-22 06:27:00,
2013-02-21 22:32:00,45.0,41.5,30.15,SSW,200,0.0,0.0,88,0.00,,,0.00,meteohub,2013-02-22 06:32:00,
2013-02-21 22:37:00,45.0,41.5,30.15,SSW,200,0.0,0.0,88,0.00,,,0.00,meteohub,2013-02-22 06:37:00,
2013-02-21 22:42:00,44.8,41.4,30.15,SSW,200,0.0,0.0,88,0.00,,,0.00,meteohub,2013-02-22 06:42:00,
2013-02-21 22:47:00,44.8,41.7,30.15,SSW,200,0.0,0.0,89,0.00,,,0.00,meteohub,2013-02-22 06:47:00,
2013-02-21 22:52:00,44.8,41.7,30.15,SSW,200,0.0,0.0,89,0.00,,,0.00,meteohub,2013-02-22 06:52:00,
2013-02-21 22:57:00,45.0,41.9,30.15,SSW,200,0.0,1.0,89,0.00,,,0.00,meteohub,2013-02-22 06:57:00,
2013-02-21 23:02:00,44.8,41.4,30.16,SSW,200,0.0,1.0,88,0.00,,,0.00,meteohub,2013-02-22 07:02:00,
2013-02-21 23:07:00,44.6,41.2,30.16,SSW,200,0.0,1.0,88,0.00,,,0.00,meteohub,2013-02-22 07:07:00,
2013-02-21 23:12:00,44.4,41.2,30.16,SSW,200,0.0,0.0,88,0.00,,,0.00,meteohub,2013-02-22 07:12:00,
2013-02-21 23:17:00,44.2,41.0,30.16,SSW,200,0.0,1.0,88,0.00,,,0.00,meteohub,2013-02-22 07:17:00,
2013-02-21 23:22:00,44.1,40.8,30.16,SSW,200,0.0,1.0,88,0.00,,,0.00,meteohub,2013-02-22 07:22:00,
2013-02-21 23:27:00,43.9,40.6,30.16,SSW,200,0.0,0.0,88,0.00,,,0.00,meteohub,2013-02-22 07:27:00,
2013-02-21 23:32:00,43.9,40.8,30.16,SSW,200,0.0,0.0,89,0.00,,,0.00,meteohub,2013-02-22 07:32:00,
2013-02-21 23:37:00,43.7,40.6,30.15,SSW,200,0.0,0.0,89,0.00,,,0.00,meteohub,2013-02-22 07:37:00,
2013-02-21 23:42:00,43.5,40.5,30.16,SSW,200,0.0,0.0,89,0.00,,,0.00,meteohub,2013-02-22 07:42:00,
2013-02-21 23:47:00,43.5,40.8,30.16,SSW,200,0.0,0.0,90,0.00,,,0.00,meteohub,2013-02-22 07:47:00,
2013-02-21 23:52:00,43.7,41.0,30.16,SSW,200,0.0,0.0,90,0.00,,,0.00,meteohub,2013-02-22 07:52:00,
2013-02-21 23:57:00,43.9,41.2,30.16,SSW,200,0.0,0.0,90,0.00,,,0.00,meteohub,2013-02-22 07:57:00,